createdAt,value
2022-10-08T00:01:17.502Z,8.50
2022-10-08T00:03:48.795Z,8.50
2022-10-08T00:06:17.272Z,8.50
2022-10-08T00:08:50.511Z,8.50
2022-10-08T00:11:21.276Z,8.60
2022-10-08T00:13:49.170Z,8.60
2022-10-08T00:16:21.822Z,8.60
2022-10-08T00:18:50.495Z,8.60
2022-10-08T00:21:22.517Z,8.60
2022-10-08T00:23:50.638Z,8.50
2022-10-08T00:26:20.270Z,8.50
2022-10-08T00:28:47.861Z,8.50
2022-10-08T00:31:36.532Z,8.50
2022-10-08T00:34:08.464Z,8.50
2022-10-08T00:36:37.550Z,8.50
2022-10-08T00:39:13.542Z,8.50
2022-10-08T00:41:41.855Z,8.40
2022-10-08T00:44:46.708Z,8.40
2022-10-08T00:47:24.679Z,8.40
2022-10-08T00:49:55.596Z,8.30
2022-10-08T00:52:25.044Z,8.30
2022-10-08T00:54:52.004Z,8.30
2022-10-08T00:57:21.913Z,8.30
2022-10-08T00:59:48.925Z,8.30
2022-10-08T01:02:16.310Z,8.30
2022-10-08T01:04:44.191Z,8.30
2022-10-08T01:07:36.769Z,8.30
2022-10-08T01:10:31.142Z,8.30
2022-10-08T01:13:24.506Z,8.30
2022-10-08T01:15:54.452Z,8.30
2022-10-08T01:18:42.546Z,8.30
2022-10-08T01:21:20.194Z,8.30
2022-10-08T01:24:05.187Z,8.30
2022-10-08T01:26:37.925Z,8.40
2022-10-08T01:29:40.362Z,8.40
2022-10-08T01:32:17.818Z,8.40
2022-10-08T01:34:49.277Z,8.40
2022-10-08T01:37:24.783Z,8.40
2022-10-08T01:39:55.198Z,8.30
2022-10-08T01:42:26.128Z,8.30
2022-10-08T01:44:58.506Z,8.40
2022-10-08T01:47:29.028Z,8.30
2022-10-08T01:50:14.011Z,8.30
2022-10-08T01:52:50.455Z,8.30
2022-10-08T01:55:24.747Z,8.40
2022-10-08T01:57:52.570Z,8.40
2022-10-08T02:00:19.808Z,8.40
2022-10-08T02:02:47.072Z,8.40
2022-10-08T02:05:14.346Z,8.40
2022-10-08T02:07:43.274Z,8.30
2022-10-08T02:10:15.521Z,8.30
2022-10-08T02:12:44.429Z,8.30
2022-10-08T02:15:19.983Z,8.30
2022-10-08T02:17:58.204Z,8.30
2022-10-08T02:20:31.855Z,8.30
2022-10-08T02:23:08.283Z,8.30
2022-10-08T02:25:44.033Z,8.40
2022-10-08T02:28:29.807Z,8.40
2022-10-08T02:31:05.720Z,8.40
2022-10-08T02:33:42.684Z,8.40
2022-10-08T02:36:12.122Z,8.30
2022-10-08T02:38:43.543Z,8.40
2022-10-08T02:41:12.695Z,8.40
2022-10-08T02:43:47.065Z,8.40
2022-10-08T02:46:23.444Z,8.30
2022-10-08T02:49:15.675Z,8.30
2022-10-08T02:51:49.550Z,8.30
2022-10-08T02:54:20.575Z,8.40
2022-10-08T02:56:57.032Z,8.30
2022-10-08T02:59:25.291Z,8.30
2022-10-08T03:01:58.811Z,8.30
2022-10-08T03:04:43.420Z,8.30
2022-10-08T03:07:12.454Z,8.30
2022-10-08T03:09:52.032Z,8.30
2022-10-08T03:12:19.936Z,8.30
2022-10-08T03:14:49.532Z,8.30
2022-10-08T03:17:31.419Z,8.30
2022-10-08T03:20:00.786Z,8.30
2022-10-08T03:22:28.183Z,8.30
2022-10-08T03:24:56.936Z,8.30
2022-10-08T03:27:24.020Z,8.30
2022-10-08T03:29:56.933Z,8.30
2022-10-08T03:32:24.889Z,8.30
2022-10-08T03:34:52.611Z,8.30
2022-10-08T03:37:20.594Z,8.30
2022-10-08T03:39:47.594Z,8.30
2022-10-08T03:42:14.558Z,8.30
2022-10-08T03:44:41.503Z,8.30
2022-10-08T03:47:08.474Z,8.30
2022-10-08T03:49:35.396Z,8.30
2022-10-08T03:52:02.304Z,8.40
2022-10-08T03:54:29.197Z,8.30
2022-10-08T03:56:56.106Z,8.30
2022-10-08T03:59:23.115Z,8.40
2022-10-08T04:01:50.061Z,8.50
2022-10-08T04:04:19.662Z,8.60
2022-10-08T04:06:48.817Z,8.60
2022-10-08T04:09:15.809Z,8.70
2022-10-08T04:11:42.706Z,8.70
2022-10-08T04:14:09.624Z,8.70
2022-10-08T04:16:36.523Z,8.70
2022-10-08T04:19:03.640Z,8.80
2022-10-08T04:21:31.688Z,8.80
2022-10-08T04:23:58.603Z,8.80
2022-10-08T04:26:25.594Z,8.80
2022-10-08T04:28:52.585Z,8.80
2022-10-08T04:31:23.278Z,8.70
2022-10-08T04:33:52.082Z,8.70
2022-10-08T04:36:22.158Z,8.60
2022-10-08T04:38:50.028Z,8.60
2022-10-08T04:41:24.940Z,8.50
2022-10-08T04:43:52.581Z,8.50
2022-10-08T04:46:21.735Z,8.40
2022-10-08T04:48:51.746Z,8.50
2022-10-08T04:51:20.435Z,8.40
2022-10-08T04:53:47.366Z,8.40
2022-10-08T04:56:17.178Z,8.30
2022-10-08T04:58:44.769Z,8.20
2022-10-08T05:01:15.609Z,8.20
2022-10-08T05:03:47.158Z,8.10
2022-10-08T05:06:17.674Z,8.00
2022-10-08T05:08:46.149Z,8.10
2022-10-08T05:11:13.992Z,8.10
2022-10-08T05:13:41.344Z,8.10
2022-10-08T05:16:10.746Z,8.10
2022-10-08T05:18:38.733Z,8.10
2022-10-08T05:21:08.149Z,8.10
2022-10-08T05:23:35.917Z,8.00
2022-10-08T05:26:31.877Z,7.90
2022-10-08T05:29:09.888Z,7.90
2022-10-08T05:31:37.529Z,7.80
2022-10-08T05:34:04.523Z,7.80
2022-10-08T05:36:32.981Z,7.70
2022-10-08T05:39:01.777Z,7.70
2022-10-08T05:41:31.653Z,7.60
2022-10-08T05:43:59.211Z,7.50
2022-10-08T05:46:27.913Z,7.50
2022-10-08T05:48:56.508Z,7.50
2022-10-08T05:51:24.594Z,7.40
2022-10-08T05:53:53.205Z,7.40
2022-10-08T05:56:22.496Z,7.40
2022-10-08T05:58:50.225Z,7.40
2022-10-08T06:01:22.828Z,7.40
2022-10-08T06:03:52.486Z,7.30
2022-10-08T06:06:19.677Z,7.30
2022-10-08T06:08:47.015Z,7.30
2022-10-08T06:11:13.996Z,7.30
2022-10-08T06:13:40.954Z,7.30
2022-10-08T06:16:11.655Z,7.30
2022-10-08T06:18:40.962Z,7.30
2022-10-08T06:21:16.954Z,7.30
2022-10-08T06:23:51.648Z,7.30
2022-10-08T06:26:19.681Z,7.30
2022-10-08T06:28:46.716Z,7.30
2022-10-08T06:31:14.199Z,7.30
2022-10-08T06:33:41.143Z,7.40
2022-10-08T06:36:20.490Z,7.40
2022-10-08T06:38:55.212Z,7.40
2022-10-08T06:41:22.738Z,7.50
2022-10-08T06:43:49.721Z,7.50
2022-10-08T06:46:18.285Z,7.70
2022-10-08T06:48:45.926Z,7.90
2022-10-08T06:51:17.518Z,8.00
2022-10-08T06:53:45.715Z,7.90
2022-10-08T06:56:15.592Z,7.90
2022-10-08T06:58:44.939Z,7.90
2022-10-08T07:01:20.596Z,7.80
2022-10-08T07:04:07.021Z,7.70
2022-10-08T07:06:34.374Z,7.70
2022-10-08T07:09:02.501Z,7.70
2022-10-08T07:11:31.399Z,7.70
2022-10-08T07:13:58.856Z,7.80
2022-10-08T07:16:27.184Z,7.80
2022-10-08T07:18:56.139Z,7.80
2022-10-08T07:21:23.847Z,7.80
2022-10-08T07:23:51.552Z,7.80
2022-10-08T07:26:20.886Z,7.90
2022-10-08T07:28:55.104Z,7.90
2022-10-08T07:31:30.465Z,7.90
2022-10-08T07:33:58.652Z,7.90
2022-10-08T07:36:26.794Z,8.00
2022-10-08T07:38:58.803Z,8.10
2022-10-08T07:41:26.080Z,8.10
2022-10-08T07:43:54.816Z,8.10
2022-10-08T07:46:22.367Z,8.20
2022-10-08T07:48:50.880Z,8.20
2022-10-08T07:51:20.140Z,8.30
2022-10-08T07:53:47.612Z,8.30
2022-10-08T07:56:17.322Z,8.30
2022-10-08T07:58:45.017Z,8.30
2022-10-08T08:01:18.159Z,8.30
2022-10-08T08:03:45.334Z,8.30
2022-10-08T08:06:15.703Z,8.30
2022-10-08T08:08:45.904Z,8.30
2022-10-08T08:11:15.546Z,8.30
2022-10-08T08:13:43.112Z,8.30
2022-10-08T08:16:15.204Z,8.50
2022-10-08T08:18:44.555Z,8.80
2022-10-08T08:21:14.570Z,9.60
2022-10-08T08:23:44.434Z,10.20
2022-10-08T08:26:20.433Z,10.20
2022-10-08T08:28:56.136Z,10.30
2022-10-08T08:31:26.023Z,10.30
2022-10-08T08:33:55.921Z,10.40
2022-10-08T08:36:31.219Z,10.70
2022-10-08T08:38:58.860Z,11.20
2022-10-08T08:41:37.586Z,11.40
2022-10-08T08:44:36.604Z,11.40
2022-10-08T08:47:40.859Z,11.30
2022-10-08T08:50:25.090Z,11.30
2022-10-08T08:52:52.335Z,11.30
2022-10-08T08:55:25.457Z,11.40
2022-10-08T08:57:57.815Z,11.50
2022-10-08T09:00:33.403Z,11.60
2022-10-08T09:03:04.123Z,11.80
2022-10-08T09:05:35.938Z,12.10
2022-10-08T09:08:22.441Z,12.50
2022-10-08T09:10:57.626Z,13.00
2022-10-08T09:13:49.368Z,13.60
2022-10-08T09:16:17.807Z,14.20
2022-10-08T09:18:50.022Z,14.40
2022-10-08T09:21:17.680Z,14.90
2022-10-08T09:23:45.741Z,15.20
2022-10-08T09:26:19.778Z,15.50
2022-10-08T09:28:52.334Z,16.00
2022-10-08T09:31:30.413Z,16.30
2022-10-08T09:34:17.665Z,16.70
2022-10-08T09:36:49.088Z,17.00
2022-10-08T09:39:39.870Z,17.30
2022-10-08T09:42:19.746Z,17.70
2022-10-08T09:44:47.901Z,17.50
2022-10-08T09:47:26.055Z,17.50
2022-10-08T09:50:20.153Z,17.80
2022-10-08T09:52:49.894Z,18.10
2022-10-08T09:55:20.091Z,18.30
2022-10-08T09:57:50.738Z,17.90
2022-10-08T10:00:30.153Z,17.70
2022-10-08T10:02:58.588Z,17.40
2022-10-08T10:05:31.203Z,17.50
2022-10-08T10:07:58.724Z,17.20
2022-10-08T10:10:35.230Z,16.90
2022-10-08T10:13:11.794Z,17.30
2022-10-08T10:15:50.749Z,17.40
2022-10-08T10:18:26.269Z,17.80
2022-10-08T10:20:58.659Z,17.80
2022-10-08T10:23:35.210Z,17.60
2022-10-08T10:26:08.047Z,17.30
2022-10-08T10:28:43.123Z,17.40
2022-10-08T10:31:27.411Z,18.00
2022-10-08T10:34:10.377Z,18.60
2022-10-08T10:36:45.607Z,18.80
2022-10-08T10:39:41.949Z,18.60
2022-10-08T10:42:31.892Z,18.80
2022-10-08T10:45:20.657Z,18.50
2022-10-08T10:47:49.059Z,18.70
2022-10-08T10:50:19.214Z,18.50
2022-10-08T10:53:15.560Z,18.20
2022-10-08T10:55:54.685Z,17.90
2022-10-08T10:58:40.306Z,17.90
2022-10-08T11:01:40.006Z,17.00
2022-10-08T11:04:19.209Z,17.00
2022-10-08T11:07:26.549Z,16.90
2022-10-08T11:10:15.707Z,16.80
2022-10-08T11:12:55.097Z,16.70
2022-10-08T11:15:32.558Z,17.30
2022-10-08T11:18:28.338Z,18.20
2022-10-08T11:21:02.945Z,18.40
2022-10-08T11:23:43.770Z,18.50
2022-10-08T11:26:22.695Z,18.90
2022-10-08T11:29:13.324Z,18.90
2022-10-08T11:31:48.445Z,19.50
2022-10-08T11:34:32.963Z,20.00
2022-10-08T11:37:18.147Z,20.10
2022-10-08T11:40:00.481Z,20.60
2022-10-08T11:42:53.822Z,20.50
2022-10-08T11:45:24.351Z,20.40
2022-10-08T11:47:56.079Z,20.30
2022-10-08T11:50:29.123Z,20.10
2022-10-08T11:53:02.001Z,19.80
2022-10-08T11:55:33.492Z,20.00
2022-10-08T11:58:08.392Z,19.90
2022-10-08T12:00:43.352Z,20.00
2022-10-08T12:03:30.457Z,19.60
2022-10-08T12:06:18.963Z,19.80
2022-10-08T12:09:07.119Z,20.10
2022-10-08T12:11:40.172Z,21.00
2022-10-08T12:14:13.092Z,21.00
2022-10-08T12:16:49.034Z,20.90
2022-10-08T12:19:35.014Z,20.90
2022-10-08T12:22:04.708Z,20.00
2022-10-08T12:24:37.664Z,19.90
2022-10-08T12:27:20.892Z,19.60
2022-10-08T12:30:07.428Z,20.20
2022-10-08T12:32:55.282Z,20.80
2022-10-08T12:35:44.003Z,21.10
2022-10-08T12:38:47.465Z,21.30
2022-10-08T12:41:34.452Z,21.50
2022-10-08T12:44:25.428Z,21.20
2022-10-08T12:47:29.917Z,21.00
2022-10-08T12:50:15.719Z,21.30
2022-10-08T12:52:42.798Z,20.80
2022-10-08T12:55:19.265Z,20.80
2022-10-08T12:57:48.826Z,21.20
2022-10-08T13:00:23.431Z,21.50
2022-10-08T13:03:12.362Z,21.70
2022-10-08T13:05:41.266Z,21.70
2022-10-08T13:08:30.663Z,21.60
2022-10-08T13:10:59.777Z,21.90
2022-10-08T13:13:46.494Z,22.40
2022-10-08T13:16:18.537Z,22.70
2022-10-08T13:18:49.197Z,22.00
2022-10-08T13:21:31.095Z,21.80
2022-10-08T13:23:59.114Z,21.80
2022-10-08T13:26:49.800Z,22.10
2022-10-08T13:29:36.404Z,22.50
2022-10-08T13:32:19.703Z,22.50
2022-10-08T13:34:52.817Z,22.70
2022-10-08T13:37:23.082Z,22.70
2022-10-08T13:39:52.775Z,22.50
2022-10-08T13:42:23.585Z,22.00
2022-10-08T13:44:51.618Z,22.00
2022-10-08T13:47:21.158Z,22.00
2022-10-08T13:49:48.460Z,21.40
2022-10-08T13:52:21.506Z,21.60
2022-10-08T13:54:51.512Z,21.20
2022-10-08T13:57:18.427Z,21.00
2022-10-08T13:59:45.352Z,20.40
2022-10-08T14:02:14.430Z,20.00
2022-10-08T14:04:41.787Z,20.20
2022-10-08T14:07:22.901Z,20.70
2022-10-08T14:09:49.803Z,20.90
2022-10-08T14:12:19.853Z,21.50
2022-10-08T14:14:46.746Z,22.00
2022-10-08T14:17:13.621Z,22.00
2022-10-08T14:19:40.501Z,21.90
2022-10-08T14:22:10.000Z,21.90
2022-10-08T14:24:36.915Z,21.80
2022-10-08T14:27:08.213Z,21.30
2022-10-08T14:29:35.646Z,21.10
2022-10-08T14:32:08.480Z,20.50
2022-10-08T14:34:36.294Z,20.60
2022-10-08T14:37:03.975Z,20.50
2022-10-08T14:39:31.582Z,20.10
2022-10-08T14:41:58.800Z,19.90
2022-10-08T14:44:25.804Z,20.40
2022-10-08T14:46:53.019Z,20.40
2022-10-08T14:49:21.091Z,20.40
2022-10-08T14:51:48.490Z,19.80
2022-10-08T14:54:15.426Z,19.40
2022-10-08T14:56:42.963Z,18.90
2022-10-08T14:59:11.196Z,19.00
2022-10-08T15:01:38.699Z,18.70
2022-10-08T15:04:06.975Z,18.60
2022-10-08T15:06:34.511Z,18.50
2022-10-08T15:09:01.642Z,18.80
2022-10-08T15:11:28.578Z,18.90
2022-10-08T15:13:55.737Z,18.90
2022-10-08T15:16:23.202Z,18.90
2022-10-08T15:18:50.192Z,18.70
2022-10-08T15:21:18.926Z,18.70
2022-10-08T15:23:46.191Z,18.70
2022-10-08T15:26:15.611Z,18.80
2022-10-08T15:28:44.138Z,18.50
2022-10-08T15:31:13.916Z,18.50
2022-10-08T15:33:46.245Z,18.30
2022-10-08T15:36:29.028Z,18.00
2022-10-08T15:39:08.753Z,18.00
2022-10-08T15:41:37.195Z,17.90
2022-10-08T15:44:19.436Z,17.90
2022-10-08T15:47:06.311Z,17.90
2022-10-08T15:49:37.452Z,17.90
2022-10-08T15:52:06.241Z,17.80
2022-10-08T15:54:37.457Z,17.70
2022-10-08T15:57:05.349Z,17.70
2022-10-08T15:59:33.309Z,17.30
2022-10-08T16:02:00.490Z,17.10
2022-10-08T16:04:27.545Z,16.90
2022-10-08T16:06:54.506Z,16.60
2022-10-08T16:09:23.290Z,16.50
2022-10-08T16:11:51.283Z,16.50
2022-10-08T16:14:20.781Z,16.40
2022-10-08T16:16:48.594Z,16.40
2022-10-08T16:19:26.776Z,16.20
2022-10-08T16:21:55.798Z,16.20
2022-10-08T16:24:23.226Z,16.10
2022-10-08T16:26:50.394Z,16.00
2022-10-08T16:29:18.686Z,16.00
2022-10-08T16:31:46.973Z,15.90
2022-10-08T16:34:17.678Z,16.00
2022-10-08T16:36:46.019Z,16.00
2022-10-08T16:39:14.037Z,16.00
2022-10-08T16:41:41.292Z,16.00
2022-10-08T16:44:12.763Z,15.90
2022-10-08T16:46:42.453Z,15.90
2022-10-08T16:49:24.070Z,15.90
2022-10-08T16:51:54.031Z,15.80
2022-10-08T16:54:21.272Z,15.70
2022-10-08T16:56:48.301Z,15.50
2022-10-08T16:59:19.075Z,15.40
2022-10-08T17:01:49.366Z,15.30
2022-10-08T17:04:17.825Z,15.10
2022-10-08T17:06:44.979Z,15.10
2022-10-08T17:09:11.888Z,15.10
2022-10-08T17:11:39.616Z,15.20
2022-10-08T17:14:07.894Z,15.20
2022-10-08T17:16:35.976Z,15.10
2022-10-08T17:19:04.040Z,15.20
2022-10-08T17:21:32.193Z,15.00
2022-10-08T17:23:59.956Z,14.80
2022-10-08T17:26:28.287Z,14.80
2022-10-08T17:28:55.812Z,14.80
2022-10-08T17:31:25.838Z,14.80
2022-10-08T17:33:53.309Z,14.80
2022-10-08T17:36:26.678Z,14.80
2022-10-08T17:38:57.117Z,14.60
2022-10-08T17:41:26.373Z,14.50
2022-10-08T17:43:55.886Z,14.40
2022-10-08T17:46:28.255Z,14.20
2022-10-08T17:48:56.046Z,14.00
2022-10-08T17:51:25.468Z,13.80
2022-10-08T17:53:54.428Z,13.70
2022-10-08T17:56:21.798Z,13.60
2022-10-08T17:58:48.847Z,13.60
2022-10-08T18:01:21.516Z,13.80
2022-10-08T18:03:54.540Z,13.70
2022-10-08T18:06:22.047Z,13.70
2022-10-08T18:08:53.777Z,13.70
2022-10-08T18:11:20.707Z,13.80
2022-10-08T18:13:47.616Z,13.90
2022-10-08T18:16:16.562Z,14.00
2022-10-08T18:18:44.725Z,13.90
2022-10-08T18:21:13.336Z,13.80
2022-10-08T18:23:43.092Z,13.70
2022-10-08T18:26:22.590Z,13.70
2022-10-08T18:28:52.418Z,13.60
2022-10-08T18:31:20.746Z,13.60
2022-10-08T18:33:49.798Z,13.60
2022-10-08T18:36:22.397Z,13.50
2022-10-08T18:39:01.263Z,13.50
2022-10-08T18:41:41.247Z,13.50
2022-10-08T18:44:11.189Z,13.50
2022-10-08T18:46:39.058Z,13.50
2022-10-08T18:49:06.735Z,13.60
2022-10-08T18:51:33.797Z,13.70
2022-10-08T18:54:03.652Z,13.50
2022-10-08T18:56:35.446Z,13.30
2022-10-08T18:59:07.515Z,13.30
2022-10-08T19:01:37.254Z,13.30
2022-10-08T19:04:11.119Z,13.30
2022-10-08T19:06:40.126Z,13.20
2022-10-08T19:09:07.495Z,13.10
2022-10-08T19:11:45.155Z,12.60
2022-10-08T19:14:14.794Z,12.30
2022-10-08T19:16:42.458Z,12.20
2022-10-08T19:19:20.733Z,12.10
2022-10-08T19:21:48.521Z,12.30
2022-10-08T19:24:18.299Z,12.10
2022-10-08T19:26:46.596Z,12.00
2022-10-08T19:29:16.403Z,12.00
2022-10-08T19:31:43.766Z,12.00
2022-10-08T19:34:14.091Z,12.10
2022-10-08T19:36:41.427Z,12.20
2022-10-08T19:39:12.128Z,12.30
2022-10-08T19:41:40.239Z,12.30
2022-10-08T19:44:07.368Z,12.30
2022-10-08T19:46:34.654Z,12.40
2022-10-08T19:49:04.444Z,12.30
2022-10-08T19:51:32.914Z,12.40
2022-10-08T19:54:01.101Z,12.30
2022-10-08T19:56:29.193Z,12.40
2022-10-08T19:58:56.225Z,12.30
2022-10-08T20:01:29.273Z,12.20
2022-10-08T20:03:58.440Z,12.30
2022-10-08T20:06:27.931Z,12.20
2022-10-08T20:08:58.668Z,12.20
2022-10-08T20:11:26.454Z,12.10
2022-10-08T20:13:54.451Z,12.10
2022-10-08T20:16:24.294Z,12.00
2022-10-08T20:18:53.278Z,11.90
2022-10-08T20:21:20.760Z,12.00
2022-10-08T20:23:48.220Z,12.00
2022-10-08T20:26:19.187Z,11.90
2022-10-08T20:28:48.859Z,11.90
2022-10-08T20:31:19.655Z,11.90
2022-10-08T20:33:47.400Z,11.90
2022-10-08T20:36:17.034Z,11.70
2022-10-08T20:38:44.095Z,11.50
2022-10-08T20:41:11.119Z,11.30
2022-10-08T20:43:39.420Z,11.30
2022-10-08T20:46:15.712Z,11.20
2022-10-08T20:48:44.104Z,11.20
2022-10-08T20:51:16.922Z,11.20
2022-10-08T20:53:52.618Z,11.00
2022-10-08T20:56:20.197Z,10.80
2022-10-08T20:58:47.125Z,10.60
2022-10-08T21:01:17.918Z,10.50
2022-10-08T21:03:46.463Z,10.80
2022-10-08T21:06:20.867Z,10.90
2022-10-08T21:08:49.939Z,11.00
2022-10-08T21:11:20.328Z,11.00
2022-10-08T21:13:48.070Z,10.80
2022-10-08T21:16:16.825Z,10.70
2022-10-08T21:18:44.931Z,10.70
2022-10-08T21:21:13.678Z,10.80
2022-10-08T21:23:41.455Z,10.60
2022-10-08T21:26:20.410Z,10.70
2022-10-08T21:28:49.094Z,10.60
2022-10-08T21:31:17.677Z,10.50
2022-10-08T21:33:47.310Z,10.40
2022-10-08T21:36:17.437Z,10.60
2022-10-08T21:38:45.084Z,10.50
2022-10-08T21:41:14.191Z,10.60
2022-10-08T21:43:56.836Z,10.70
2022-10-08T21:46:28.351Z,10.70
2022-10-08T21:48:57.274Z,10.70
2022-10-08T21:51:24.953Z,10.60
2022-10-08T21:53:55.286Z,10.70
2022-10-08T21:56:24.294Z,10.80
2022-10-08T21:58:53.992Z,10.80
2022-10-08T22:01:28.129Z,10.80
2022-10-08T22:04:03.032Z,10.90
2022-10-08T22:06:32.457Z,10.90
2022-10-08T22:09:00.099Z,10.90
2022-10-08T22:11:27.535Z,10.80
2022-10-08T22:13:54.454Z,10.80
2022-10-08T22:16:23.118Z,10.80
2022-10-08T22:18:50.163Z,10.80
2022-10-08T22:21:21.718Z,10.60
2022-10-08T22:23:50.067Z,10.50
2022-10-08T22:26:22.724Z,10.50
2022-10-08T22:28:50.493Z,10.50
2022-10-08T22:31:19.027Z,10.40
2022-10-08T22:33:47.083Z,10.40
2022-10-08T22:36:16.857Z,10.20
2022-10-08T22:38:44.736Z,10.20
2022-10-08T22:41:18.125Z,10.20
2022-10-08T22:43:46.079Z,10.20
2022-10-08T22:46:18.707Z,10.10
2022-10-08T22:48:45.839Z,10.10
2022-10-08T22:51:15.731Z,10.00
2022-10-08T22:53:43.113Z,10.00
2022-10-08T22:56:19.778Z,9.80
2022-10-08T22:58:48.123Z,9.80
2022-10-08T23:01:18.061Z,9.80
2022-10-08T23:03:45.623Z,9.80
2022-10-08T23:06:17.494Z,9.80
2022-10-08T23:08:45.684Z,9.70
2022-10-08T23:11:15.734Z,9.60
2022-10-08T23:13:45.689Z,9.40
2022-10-08T23:16:14.605Z,9.40
2022-10-08T23:18:43.534Z,9.50
2022-10-08T23:21:13.097Z,9.50
2022-10-08T23:23:40.591Z,9.60
2022-10-08T23:26:08.858Z,9.60
2022-10-08T23:28:38.097Z,9.60
2022-10-08T23:31:10.566Z,9.60
2022-10-08T23:33:39.138Z,9.40
2022-10-08T23:36:07.528Z,9.50
2022-10-08T23:38:35.583Z,9.40
2022-10-08T23:41:04.407Z,9.40
2022-10-08T23:43:36.172Z,9.30
2022-10-08T23:46:04.074Z,9.30
2022-10-08T23:48:31.881Z,9.30
2022-10-08T23:50:58.822Z,9.40
2022-10-08T23:53:25.851Z,9.30
2022-10-08T23:55:53.400Z,9.40
2022-10-08T23:58:20.427Z,9.30
